Time;durP1;ratioP1;P1;durP2;ratioP2;P2;SDS_P1;SDS_P2;PMS_P1;PMS_P2;Temp;Humidity;BMP_temperature;BMP_pressure;BME280_temperature;BME280_humidity;BME280_pressure;Samples;Min_cycle;Max_cycle;Signal;HPM_P1;HPM_P2
2022/11/10 00:02:00;;;;;;;2.53;0.47;;;;;;;16.96;100.00;99338.00;7394082;19;20015;-60
2022/11/10 00:04:44;;;;;;;0.10;0.10;;;;;;;17.04;100.00;99333.31;7394590;19;20018;-60
2022/11/10 00:07:29;;;;;;;0.40;0.20;;;;;;;17.18;100.00;99346.13;7394024;19;20018;-60
2022/11/10 00:10:14;;;;;;;1.13;1.00;;;;;;;17.27;100.00;99340.13;7393649;19;20014;-60
2022/11/10 00:13:02;;;;;;;6.95;1.20;;;;;;;17.17;100.00;99344.63;7393102;19;20018;-60
2022/11/10 00:18:50;;;;;;;0.45;0.43;;;;;;;17.25;100.00;99346.28;7392354;19;20010;-60
2022/11/10 00:21:37;;;;;;;7.88;0.32;;;;;;;17.25;100.00;99348.34;7396638;19;20010;-60
2022/11/10 00:24:22;;;;;;;0.20;0.20;;;;;;;17.25;100.00;99345.53;7393577;19;20408;-60
2022/11/10 00:27:07;;;;;;;14.77;1.95;;;;;;;17.24;100.00;99349.63;7392509;19;20086;-60
2022/11/10 00:29:51;;;;;;;0.32;0.30;;;;;;;17.00;100.00;99356.09;7398307;19;20050;-60
2022/11/10 00:32:36;;;;;;;0.20;0.20;;;;;;;17.01;100.00;99356.88;7398790;19;20006;-60
2022/11/10 00:35:20;;;;;;;2.25;0.45;;;;;;;17.14;100.00;99354.13;7391650;19;20006;-60
2022/11/10 00:38:05;;;;;;;0.30;0.10;;;;;;;17.23;100.00;99356.56;7393086;19;20342;-59
2022/11/10 00:40:50;;;;;;;0.20;0.15;;;;;;;17.14;100.00;99352.09;7394945;19;20078;-60
2022/11/10 00:43:34;;;;;;;0.10;0.00;;;;;;;17.13;100.00;99347.72;7394026;19;20011;-60
2022/11/10 00:46:19;;;;;;;0.22;0.10;;;;;;;17.11;100.00;99346.75;7393052;19;20018;-60
2022/11/10 00:49:04;;;;;;;0.38;0.20;;;;;;;17.12;100.00;99349.03;7393470;19;20507;-60
2022/11/10 00:51:48;;;;;;;1.38;0.65;;;;;;;17.23;100.00;99348.13;7396338;19;20014;-60
2022/11/10 00:54:33;;;;;;;3.03;0.40;;;;;;;17.18;100.00;99355.34;7394725;19;20392;-60
2022/11/10 00:57:18;;;;;;;3.40;0.47;;;;;;;17.07;100.00;99352.69;7398540;19;20460;-60
2022/11/10 01:00:03;;;;;;;9.55;0.43;;;;;;;17.09;100.00;99363.41;7397028;19;20014;-64
2022/11/10 01:02:48;;;;;;;0.10;0.10;;;;;;;17.07;100.00;99365.97;7394555;19;20011;-61
2022/11/10 01:05:36;;;;;;;1.35;0.38;;;;;;;17.29;100.00;99355.19;7396869;19;20010;-60
2022/11/10 01:08:21;;;;;;;0.10;0.00;;;;;;;17.54;100.00;99372.00;7392067;19;20011;-60
2022/11/10 01:11:08;;;;;;;0.20;0.20;;;;;;;17.67;100.00;99375.63;7401026;19;20019;-60
2022/11/10 01:13:54;;;;;;;0.10;0.10;;;;;;;17.83;100.00;99363.34;7400549;19;20014;-60
2022/11/10 01:16:39;;;;;;;3.95;0.38;;;;;;;17.92;100.00;99373.44;7399908;19;20011;-60
2022/11/10 01:19:23;;;;;;;2.60;0.20;;;;;;;17.95;100.00;99367.47;7400852;19;20014;-60
2022/11/10 01:22:07;;;;;;;0.10;0.10;;;;;;;18.01;100.00;99370.19;7404520;19;20593;-60
2022/11/10 01:24:52;;;;;;;2.13;0.40;;;;;;;17.93;100.00;99361.63;7399475;19;20011;-60
2022/11/10 01:27:37;;;;;;;0.10;0.00;;;;;;;17.90;100.00;99364.75;7399873;19;20018;-60
2022/11/10 01:30:22;;;;;;;0.88;0.30;;;;;;;17.92;100.00;99368.56;7400591;19;20069;-60
2022/11/10 01:33:07;;;;;;;0.38;0.20;;;;;;;18.10;100.00;99362.06;7399736;19;20014;-60
2022/11/10 01:35:51;;;;;;;0.10;0.10;;;;;;;18.34;100.00;99358.34;7397169;19;20018;-60
2022/11/10 01:38:39;;;;;;;0.00;0.00;;;;;;;18.31;100.00;99365.03;7399334;19;20011;-60
2022/11/10 01:41:23;;;;;;;0.00;0.00;;;;;;;18.03;100.00;99365.56;7399670;19;20345;-60
2022/11/10 01:44:21;;;;;;;0.15;0.08;;;;;;;18.06;100.00;99364.47;7399460;19;20074;-61
2022/11/10 01:47:05;;;;;;;0.22;0.22;;;;;;;18.07;100.00;99368.81;7399616;19;20030;-60
2022/11/10 01:49:50;;;;;;;0.17;0.15;;;;;;;18.16;100.00;99371.22;7399231;19;20344;-60
2022/11/10 01:52:36;;;;;;;0.13;0.03;;;;;;;18.12;100.00;99387.69;7402022;19;20018;-60
2022/11/10 01:55:21;;;;;;;0.45;0.30;;;;;;;18.17;100.00;99384.00;7397130;19;20014;-61
2022/11/10 01:58:06;;;;;;;0.45;0.43;;;;;;;18.16;100.00;99384.53;7401117;19;20011;-60
2022/11/10 02:00:51;;;;;;;0.98;0.35;;;;;;;18.05;100.00;99379.88;7399850;19;20022;-60
2022/11/10 02:03:41;;;;;;;0.17;0.17;;;;;;;18.03;100.00;99385.28;7398338;19;20460;-60
2022/11/10 02:06:30;;;;;;;6.43;0.43;;;;;;;18.27;100.00;99386.41;7397848;19;20018;-60
2022/11/10 02:09:15;;;;;;;8.18;0.57;;;;;;;18.37;100.00;99391.06;7397090;19;20011;-60
2022/11/10 02:11:59;;;;;;;0.20;0.20;;;;;;;18.57;100.00;99401.00;7401135;19;20014;-60
2022/11/10 02:14:44;;;;;;;0.10;0.10;;;;;;;18.34;100.00;99389.34;7397460;19;20014;-60
2022/11/10 02:17:28;;;;;;;0.68;0.17;;;;;;;18.42;100.00;99392.28;7396838;19;20019;-60
2022/11/10 02:20:16;;;;;;;3.20;0.45;;;;;;;18.36;100.00;99386.75;7398328;19;20011;-60
2022/11/10 02:23:34;;;;;;;0.20;0.20;;;;;;;18.28;100.00;99382.28;7398740;19;20018;-60
2022/11/10 02:26:28;;;;;;;0.10;0.00;;;;;;;18.06;100.00;99383.44;7396826;19;20014;-60
2022/11/10 02:29:14;;;;;;;0.00;0.00;;;;;;;18.08;100.00;99381.59;7399936;19;20010;-60
2022/11/10 02:31:58;;;;;;;0.10;0.10;;;;;;;18.19;100.00;99392.66;7399030;19;20015;-60
2022/11/10 02:34:43;;;;;;;2.40;0.70;;;;;;;18.25;100.00;99397.47;7397354;19;20019;-60
2022/11/10 02:37:28;;;;;;;0.00;0.00;;;;;;;18.28;100.00;99402.78;7397293;19;20006;-60
2022/11/10 02:40:12;;;;;;;0.00;0.00;;;;;;;18.42;100.00;99403.56;7396313;19;20700;-60
2022/11/10 02:42:57;;;;;;;0.10;0.10;;;;;;;18.47;100.00;99405.56;7396245;19;20011;-60
2022/11/10 02:45:44;;;;;;;1.13;0.30;;;;;;;18.53;100.00;99409.78;7402140;19;20464;-60
2022/11/10 02:48:29;;;;;;;0.00;0.00;;;;;;;18.46;100.00;99415.28;7398048;19;20336;-61
2022/11/10 02:51:14;;;;;;;0.10;0.10;;;;;;;18.49;100.00;99420.63;7399285;19;20011;-60
2022/11/10 02:53:58;;;;;;;0.10;0.10;;;;;;;18.58;100.00;99427.91;7396243;19;20463;-61
2022/11/10 02:56:43;;;;;;;0.00;0.00;;;;;;;18.61;100.00;99421.16;7397297;19;20014;-60
2022/11/10 02:59:27;;;;;;;0.10;0.10;;;;;;;18.82;100.00;99430.50;7401793;19;20010;-60
2022/11/10 03:02:12;;;;;;;0.17;0.15;;;;;;;18.70;100.00;99423.56;7398624;19;20011;-60
2022/11/10 03:04:57;;;;;;;0.10;0.00;;;;;;;18.65;100.00;99421.59;7396469;19;20329;-60
2022/11/10 03:07:41;;;;;;;0.55;0.10;;;;;;;18.65;100.00;99421.59;7397556;19;20018;-60
2022/11/10 03:10:28;;;;;;;0.10;0.00;;;;;;;18.58;100.00;99422.25;7397270;19;20018;-60
2022/11/10 03:13:12;;;;;;;0.47;0.40;;;;;;;18.52;100.00;99413.13;7396050;19;20062;-60
2022/11/10 03:15:57;;;;;;;1.88;0.28;;;;;;;18.45;100.00;99411.72;7394662;19;20018;-60
2022/11/10 03:18:42;;;;;;;0.10;0.08;;;;;;;18.42;100.00;99409.19;7395829;19;20014;-60
2022/11/10 03:21:27;;;;;;;0.98;0.00;;;;;;;18.37;100.00;99419.28;7399126;19;20007;-60
2022/11/10 03:24:11;;;;;;;3.03;0.38;;;;;;;18.25;100.00;99422.81;7395963;19;20011;-61
2022/11/10 03:26:56;;;;;;;0.45;0.38;;;;;;;18.09;100.00;99419.00;7396240;19;20389;-61
2022/11/10 03:29:40;;;;;;;0.10;0.00;;;;;;;18.32;100.00;99420.13;7400476;19;20019;-60
2022/11/10 03:32:25;;;;;;;0.10;0.03;;;;;;;18.36;100.00;99428.28;7398718;19;20070;-60
2022/11/10 03:35:10;;;;;;;0.00;0.00;;;;;;;18.39;100.00;99416.66;7395371;19;20011;-60
2022/11/10 03:37:54;;;;;;;0.10;0.10;;;;;;;18.38;100.00;99425.69;7396416;19;20081;-61
2022/11/10 03:40:39;;;;;;;0.68;0.17;;;;;;;18.39;100.00;99427.19;7397517;19;20010;-61
2022/11/10 03:43:24;;;;;;;0.28;0.28;;;;;;;18.34;100.00;99425.22;7396523;19;20349;-61
2022/11/10 03:46:08;;;;;;;0.52;0.52;;;;;;;18.44;100.00;99429.16;7400378;19;20014;-61
2022/11/10 03:48:53;;;;;;;0.10;0.10;;;;;;;18.40;100.00;99428.72;7395124;19;20018;-61
2022/11/10 03:51:38;;;;;;;0.10;0.10;;;;;;;18.34;100.00;99433.69;7399160;19;20014;-60
2022/11/10 03:54:23;;;;;;;0.13;0.10;;;;;;;18.42;100.00;99429.69;7395446;19;20014;-60
2022/11/10 03:57:07;;;;;;;0.10;0.00;;;;;;;18.35;100.00;99443.66;7394486;19;20014;-60
2022/11/10 03:59:52;;;;;;;0.03;0.03;;;;;;;18.37;100.00;99441.06;7399290;19;20018;-62
2022/11/10 04:02:37;;;;;;;0.00;0.00;;;;;;;18.16;100.00;99444.50;7399508;19;20015;-62
2022/11/10 04:17:37;;;;;;;0.52;0.52;;;;;;;18.04;100.00;99442.41;7395314;19;20018;-59
2022/11/10 04:20:22;;;;;;;0.47;0.00;;;;;;;17.94;100.00;99438.44;7394310;19;20014;-59
2022/11/10 04:26:29;;;;;;;0.00;0.00;;;;;;;18.02;100.00;99426.00;7393839;19;20011;-60
2022/11/10 04:29:16;;;;;;;1.10;0.32;;;;;;;17.95;100.00;99423.81;7398567;19;20463;-60
2022/11/10 04:32:01;;;;;;;0.00;0.00;;;;;;;18.13;100.00;99422.25;7397423;19;20018;-60
2022/11/10 04:34:45;;;;;;;0.05;0.05;;;;;;;18.24;100.00;99415.66;7392199;19;20022;-60
2022/11/10 04:37:30;;;;;;;2.50;0.28;;;;;;;18.31;100.00;99420.66;7393832;19;20019;-60
2022/11/10 04:40:15;;;;;;;0.10;0.10;;;;;;;18.36;100.00;99414.94;7394441;19;20014;-61
2022/11/10 04:42:59;;;;;;;0.10;0.10;;;;;;;18.49;100.00;99420.63;7394365;19;20463;-60
2022/11/10 04:45:44;;;;;;;0.00;0.00;;;;;;;18.61;100.00;99421.16;7396559;19;20018;-60
2022/11/10 04:48:28;;;;;;;0.00;0.00;;;;;;;18.75;100.00;99434.72;7393898;19;20329;-60
2022/11/10 04:51:14;;;;;;;0.68;0.30;;;;;;;18.64;100.00;99439.84;7395552;19;20010;-60
2022/11/10 04:54:00;;;;;;;0.17;0.17;;;;;;;18.55;100.00;99446.66;7393762;19;20011;-60
2022/11/10 04:56:44;;;;;;;0.05;0.00;;;;;;;18.54;100.00;99450.00;7392030;19;20018;-60
2022/11/10 04:59:29;;;;;;;0.10;0.00;;;;;;;18.66;100.00;99459.81;7397071;19;20007;-60
2022/11/10 05:02:13;;;;;;;0.10;0.00;;;;;;;18.92;100.00;99459.81;7397067;19;20014;-61
2022/11/10 05:04:58;;;;;;;0.10;0.10;;;;;;;19.17;100.00;99455.44;7393253;19;20015;-60
2022/11/10 05:07:46;;;;;;;1.10;0.35;;;;;;;19.19;100.00;99478.25;7393943;19;20459;-60
2022/11/10 05:10:32;;;;;;;0.13;0.00;;;;;;;19.14;100.00;99472.72;7393845;19;20015;-60
2022/11/10 05:13:17;;;;;;;0.20;0.10;;;;;;;19.17;100.00;99466.75;7393866;19;20019;-60
2022/11/10 05:16:01;;;;;;;0.10;0.00;;;;;;;19.08;100.00;99470.00;7391631;19;20074;-60
2022/11/10 05:18:46;;;;;;;0.00;0.00;;;;;;;18.90;100.00;99471.66;7392927;19;20459;-60
2022/11/10 05:21:30;;;;;;;0.00;0.00;;;;;;;19.17;100.00;99469.56;7394739;19;20010;-60
2022/11/10 05:24:15;;;;;;;0.00;0.00;;;;;;;19.43;100.00;99483.69;7392928;19;20010;-60
2022/11/10 05:26:59;;;;;;;0.00;0.00;;;;;;;19.52;100.00;99480.41;7392043;19;20074;-60
2022/11/10 05:29:44;;;;;;;0.10;0.10;;;;;;;19.54;100.00;99480.63;7397366;19;20070;-60
2022/11/10 05:32:29;;;;;;;0.90;0.35;;;;;;;19.55;100.00;99479.34;7396236;19;20019;-60
2022/11/10 05:35:14;;;;;;;0.00;0.00;;;;;;;19.64;100.00;99483.75;7392048;19;20007;-60
2022/11/10 05:37:58;;;;;;;0.10;0.10;;;;;;;19.63;100.00;99482.22;7394769;19;20337;-60
2022/11/10 05:40:43;;;;;;;0.63;0.10;;;;;;;19.71;100.00;99488.72;7394960;19;20455;-60
2022/11/10 05:43:27;;;;;;;0.00;0.00;;;;;;;19.57;100.00;99470.31;7395108;19;20014;-60
2022/11/10 05:46:12;;;;;;;0.75;0.30;;;;;;;19.43;100.00;99478.03;7395311;19;20494;-60
2022/11/10 05:48:57;;;;;;;0.17;0.17;;;;;;;19.34;100.00;99475.66;7395104;19;20015;-60
2022/11/10 05:51:42;;;;;;;0.00;0.00;;;;;;;19.51;100.00;99476.06;7393134;19;20325;-60
2022/11/10 05:54:27;;;;;;;2.55;0.30;;;;;;;19.48;100.00;99471.50;7393844;19;20023;-60
2022/11/10 05:57:12;;;;;;;1.30;0.10;;;;;;;19.61;100.00;99476.38;7400733;19;20011;-58
2022/11/10 05:59:56;;;;;;;0.10;0.05;;;;;;;19.54;100.00;99472.16;7401333;19;20010;-58
2022/11/10 06:02:42;;;;;;;0.35;0.13;;;;;;;19.44;100.00;99467.50;7402114;19;20010;-58
2022/11/10 06:05:29;;;;;;;0.20;0.10;;;;;;;19.35;100.00;99474.34;7402049;19;20455;-58
2022/11/10 06:08:14;;;;;;;0.10;0.10;;;;;;;19.35;100.00;99477.19;7401796;19;20086;-58
2022/11/10 06:10:58;;;;;;;0.10;0.10;;;;;;;19.33;100.00;99487.47;7400786;19;20019;-59
2022/11/10 06:13:43;;;;;;;0.00;0.00;;;;;;;19.43;100.00;99488.56;7403537;19;20006;-58
2022/11/10 06:16:28;;;;;;;0.00;0.00;;;;;;;19.32;100.00;99491.59;7398395;19;20080;-58
2022/11/10 06:19:12;;;;;;;0.40;0.00;;;;;;;19.37;100.00;99488.69;7401952;19;20014;-58
2022/11/10 06:21:57;;;;;;;0.10;0.00;;;;;;;19.47;100.00;99503.09;7402094;19;20014;-58
2022/11/10 06:24:42;;;;;;;3.03;0.10;;;;;;;19.42;100.00;99487.81;7402799;19;20074;-58
2022/11/10 06:27:26;;;;;;;0.00;0.00;;;;;;;19.66;100.00;99487.53;7396720;19;20341;-58
2022/11/10 06:30:11;;;;;;;0.20;0.20;;;;;;;19.42;100.00;99496.31;7397620;19;20014;-58
2022/11/10 06:32:56;;;;;;;0.10;0.00;;;;;;;19.64;100.00;99498.63;7397296;19;20014;-60
2022/11/10 06:35:40;;;;;;;0.05;0.00;;;;;;;19.68;100.00;99493.41;7396376;19;20610;-60
2022/11/10 06:38:25;;;;;;;0.10;0.00;;;;;;;19.45;100.00;99500.84;7397377;19;20011;-61
2022/11/10 06:41:09;;;;;;;0.20;0.20;;;;;;;19.50;100.00;99505.63;7399723;19;20018;-60
2022/11/10 06:43:54;;;;;;;0.00;0.00;;;;;;;19.39;100.00;99511.50;7397224;19;20376;-60
2022/11/10 06:46:39;;;;;;;0.10;0.10;;;;;;;18.94;100.00;99522.13;7398170;19;20019;-60
2022/11/10 06:49:23;;;;;;;0.08;0.08;;;;;;;19.30;100.00;99509.09;7398166;19;20018;-59
2022/11/10 06:52:08;;;;;;;0.00;0.00;;;;;;;19.26;100.00;99505.84;7401080;19;20011;-60
2022/11/10 06:54:52;;;;;;;3.97;0.63;;;;;;;19.17;100.00;99506.25;7396480;19;20014;-60
2022/11/10 06:57:38;;;;;;;0.75;0.75;;;;;;;19.11;100.00;99514.09;7397630;19;20026;-62
2022/11/10 07:00:24;;;;;;;10.43;0.63;;;;;;;19.12;100.00;99504.34;7398065;19;20006;-60
2022/11/10 07:03:12;;;;;;;0.10;0.10;;;;;;;19.12;100.00;99514.84;7396604;19;20384;-59
2022/11/10 07:05:58;;;;;;;0.25;0.20;;;;;;;19.14;100.00;99517.91;7397048;19;20018;-60
2022/11/10 07:08:42;;;;;;;0.80;0.15;;;;;;;19.14;100.00;99529.97;7394998;19;20014;-60
2022/11/10 07:11:27;;;;;;;0.10;0.10;;;;;;;19.19;100.00;99525.50;7398311;19;20388;-60
2022/11/10 07:14:11;;;;;;;0.00;0.00;;;;;;;19.03;100.00;99520.94;7395931;19;20014;-57
2022/11/10 07:16:56;;;;;;;0.20;0.08;;;;;;;18.96;100.00;99518.75;7396448;19;20019;-58
2022/11/10 07:19:40;;;;;;;0.10;0.10;;;;;;;18.97;100.00;99523.88;7395986;19;20014;-58
2022/11/10 07:22:25;;;;;;;1.55;0.20;;;;;;;18.86;100.00;99532.53;7401270;19;20458;-58
2022/11/10 07:25:10;;;;;;;3.33;0.55;;;;;;;18.85;100.00;99537.41;7396413;19;20018;-57
2022/11/10 07:27:58;;;;;;;2.70;0.52;;;;;;;19.01;100.00;99529.19;7396763;19;20021;-57
2022/11/10 07:30:43;;;;;;;1.00;0.50;;;;;;;19.09;100.00;99533.63;7397532;19;20015;-58
2022/11/10 07:33:28;;;;;;;0.10;0.03;;;;;;;19.01;100.00;99537.66;7396375;19;20014;-58
2022/11/10 07:36:12;;;;;;;0.40;0.22;;;;;;;19.08;100.00;99532.09;7394612;19;20006;-58
2022/11/10 07:38:57;;;;;;;0.32;0.20;;;;;;;19.08;100.00;99543.38;7396851;19;20014;-58
2022/11/10 07:41:41;;;;;;;0.10;0.10;;;;;;;19.17;100.00;99551.44;7399247;19;20018;-57
2022/11/10 07:44:26;;;;;;;7.32;0.40;;;;;;;19.05;100.00;99555.78;7397706;19;20070;-60
2022/11/10 07:47:11;;;;;;;0.10;0.10;;;;;;;18.98;100.00;99555.66;7395574;19;20010;-58
2022/11/10 07:49:56;;;;;;;3.42;0.43;;;;;;;18.98;100.00;99559.25;7395307;19;20018;-59
2022/11/10 07:52:40;;;;;;;0.52;0.15;;;;;;;19.01;100.00;99558.16;7400752;19;20066;-59
2022/11/10 07:55:25;;;;;;;0.00;0.00;;;;;;;19.05;100.00;99561.44;7396599;19;20040;-60
2022/11/10 07:58:12;;;;;;;0.20;0.20;;;;;;;19.23;100.00;99560.56;7396526;19;20400;-60
2022/11/10 08:00:57;;;;;;;0.63;0.57;;;;;;;19.33;100.00;99556.00;7396800;19;20015;-59
2022/11/10 08:03:42;;;;;;;0.10;0.00;;;;;;;19.35;100.00;99547.00;7395260;19;20014;-60
2022/11/10 08:06:26;;;;;;;0.15;0.08;;;;;;;19.37;100.00;99558.53;7395315;19;20014;-59
2022/11/10 08:09:11;;;;;;;1.50;0.20;;;;;;;19.36;100.00;99566.22;7395242;19;20337;-60
2022/11/10 08:11:55;;;;;;;0.00;0.00;;;;;;;19.53;100.00;99563.09;7398339;19;20015;-58
2022/11/10 08:14:40;;;;;;;0.10;0.00;;;;;;;19.58;100.00;99562.97;7393698;19;20484;-58
2022/11/10 08:17:24;;;;;;;0.45;0.40;;;;;;;19.75;100.00;99576.00;7395309;19;20010;-57
2022/11/10 08:20:09;;;;;;;0.20;0.00;;;;;;;19.77;100.00;99568.50;7393813;19;20333;-58
2022/11/10 08:22:59;;;;;;;0.63;0.20;;;;;;;19.81;100.00;99580.22;7394029;19;20015;-58
2022/11/10 08:25:45;;;;;;;0.35;0.10;;;;;;;19.97;100.00;99581.16;7394083;19;20010;-60
2022/11/10 08:28:30;;;;;;;0.08;0.00;;;;;;;19.99;100.00;99584.22;7396506;19;20467;-60
2022/11/10 08:31:15;;;;;;;0.95;0.10;;;;;;;20.15;100.00;99585.91;7396536;19;20011;-60
2022/11/10 08:34:00;;;;;;;0.10;0.10;;;;;;;20.09;100.00;99579.63;7392477;19;20014;-60
2022/11/10 08:36:45;;;;;;;1.17;0.20;;;;;;;20.18;100.00;99590.47;7393655;19;20011;-60
2022/11/10 08:39:32;;;;;;;0.10;0.10;;;;;;;20.18;100.00;99584.81;7398195;19;20077;-58
2022/11/10 08:42:17;;;;;;;0.60;0.25;;;;;;;20.22;100.00;99590.91;7398767;19;20011;-59
2022/11/10 08:45:02;;;;;;;0.35;0.20;;;;;;;20.36;100.00;99595.22;7395575;19;20010;-59
2022/11/10 08:47:47;;;;;;;0.10;0.10;;;;;;;20.51;100.00;99595.38;7393630;19;20345;-58
2022/11/10 08:50:32;;;;;;;0.00;0.00;;;;;;;20.52;100.00;99591.25;7394621;19;20011;-58
2022/11/10 08:53:20;;;;;;;0.08;0.00;;;;;;;20.58;100.00;99605.25;7393881;19;20074;-58
2022/11/10 08:56:05;;;;;;;0.00;0.00;;;;;;;20.69;100.00;99594.41;7392197;19;20019;-59
2022/11/10 08:58:51;;;;;;;0.00;0.00;;;;;;;20.75;100.00;99608.41;7395968;19;20018;-59
2022/11/10 09:01:36;;;;;;;0.55;0.28;;;;;;;20.77;100.00;99611.47;7395952;19;20460;-59
2022/11/10 09:04:20;;;;;;;1.95;0.17;;;;;;;20.77;100.00;99615.06;7392818;19;20463;-59
2022/11/10 09:07:05;;;;;;;0.10;0.10;;;;;;;20.70;100.00;99615.75;7392800;19;20010;-59
2022/11/10 09:09:49;;;;;;;0.30;0.20;;;;;;;20.40;100.00;99618.25;7393164;19;20010;-59
2022/11/10 09:12:35;;;;;;;3.00;0.22;;;;;;;20.80;100.00;99619.63;7398393;19;20015;-58
2022/11/10 09:15:20;;;;;;;0.35;0.20;;;;;;;21.10;100.00;99621.97;7393018;19;20014;-59
2022/11/10 09:18:06;;;;;;;1.00;0.20;;;;;;;21.18;100.00;99622.78;7392574;19;20031;-60
2022/11/10 09:20:51;;;;;;;0.20;0.00;;;;;;;21.09;100.00;99632.53;7393585;19;20014;-59
2022/11/10 09:23:35;;;;;;;1.17;0.10;;;;;;;21.02;100.00;99621.13;7392705;19;20018;-59
2022/11/10 09:26:20;;;;;;;0.10;0.10;;;;;;;21.13;100.00;99618.81;7391094;19;20015;-59
2022/11/10 09:29:04;;;;;;;0.10;0.00;;;;;;;21.16;100.00;99621.84;7395529;19;20014;-59
2022/11/10 09:31:49;;;;;;;0.30;0.20;;;;;;;21.18;100.00;99639.78;7400987;19;20010;-59
2022/11/10 09:34:34;;;;;;;0.10;0.10;;;;;;;21.24;100.00;99636.81;7400027;19;20014;-59
2022/11/10 09:37:18;;;;;;;0.00;0.00;;;;;;;21.32;100.00;99658.22;7400123;19;20018;-59
2022/11/10 09:40:03;;;;;;;0.63;0.20;;;;;;;21.25;100.00;99638.31;7397875;19;20006;-59
2022/11/10 09:42:52;;;;;;;0.00;0.00;;;;;;;21.61;100.00;99628.56;7399622;19;20010;-59
2022/11/10 09:45:42;;;;;;;3.72;0.20;;;;;;;21.74;100.00;99608.63;7403023;19;20010;-60
2022/11/10 09:48:30;;;;;;;0.00;0.00;;;;;;;21.96;100.00;99604.41;7399180;19;20011;-60
2022/11/10 09:51:21;;;;;;;0.10;0.10;;;;;;;22.18;100.00;99603.75;7401778;19;20015;-59
2022/11/10 09:54:18;;;;;;;;;;;;;;;22.43;100.00;99618.97;7404036;19;20002;-59
2022/11/10 09:57:06;;;;;;;0.10;0.00;;;;;;;22.67;100.00;99619.78;7399943;19;19945;-63
2022/11/10 09:59:52;;;;;;;0.05;0.05;;;;;;;22.70;100.00;99630.03;7400977;19;20006;-59
2022/11/10 10:02:49;;;;;;;0.00;0.00;;;;;;;22.84;100.00;99645.56;7402703;19;20066;-59
2022/11/10 10:05:45;;;;;;;0.08;0.00;;;;;;;22.97;100.00;99659.59;7399631;19;20018;-59
2022/11/10 10:09:10;;;;;;;0.10;0.05;;;;;;;22.91;100.00;99656.94;7398767;19;20039;-60
2022/11/10 10:12:14;;;;;;;0.10;0.10;;;;;;;22.59;100.00;99660.28;7401640;19;20452;-60
2022/11/10 10:15:06;;;;;;;0.30;0.10;;;;;;;22.64;100.00;99667.09;7397664;19;20015;-59
2022/11/10 10:17:54;;;;;;;1.45;0.00;;;;;;;22.69;100.00;99671.09;7398564;19;20010;-59
2022/11/10 10:21:10;;;;;;;6.75;0.45;;;;;;;22.61;100.00;99680.34;7399917;19;20448;-58
2022/11/10 10:23:58;;;;;;;0.32;0.13;;;;;;;22.55;100.00;99684.63;7397584;19;20014;-59
2022/11/10 10:26:51;;;;;;;5.28;0.50;;;;;;;22.44;100.00;99680.06;7398686;19;20015;-59
2022/11/10 10:29:44;;;;;;;1.10;0.30;;;;;;;22.52;100.00;99678.00;7403317;19;20007;-59
2022/11/10 10:32:28;;;;;;;0.00;0.00;;;;;;;21.80;100.00;99682.19;7402377;19;20018;-59
2022/11/10 10:35:17;;;;;;;2.75;0.10;;;;;;;21.65;100.00;99676.41;7396544;19;20018;-59
2022/11/10 10:38:04;;;;;;;2.55;0.15;;;;;;;21.96;100.00;99672.47;7398503;19;20069;-59
2022/11/10 10:40:51;;;;;;;2.10;0.35;;;;;;;21.88;100.00;99671.66;7399080;19;20014;-59
2022/11/10 10:43:35;;;;;;;0.52;0.20;;;;;;;22.07;100.00;99665.72;7397171;19;20463;-59
2022/11/10 10:46:25;;;;;;;0.00;0.00;;;;;;;22.47;100.00;99664.75;7397481;19;20022;-59
2022/11/10 10:49:25;;;;;;;3.00;0.52;;;;;;;22.77;100.00;99675.47;7397297;19;20463;-59
2022/11/10 10:52:13;;;;;;;0.00;0.00;;;;;;;22.88;100.00;99680.03;7400961;19;20007;-59
2022/11/10 10:55:00;;;;;;;0.00;0.00;;;;;;;22.92;100.00;99674.72;7398013;19;20014;-59
2022/11/10 10:57:54;;;;;;;0.13;0.13;;;;;;;22.72;100.00;99672.81;7397960;19;20015;-59
2022/11/10 11:00:44;;;;;;;1.27;0.20;;;;;;;22.33;100.00;99665.44;7397728;19;20018;-59
2022/11/10 11:03:38;;;;;;;2.70;0.17;;;;;;;22.35;100.00;99669.25;7397470;19;20014;-59
2022/11/10 11:06:31;;;;;;;0.20;0.10;;;;;;;22.16;100.00;99674.47;7396652;19;20066;-59
2022/11/10 11:09:22;;;;;;;2.15;0.10;;;;;;;22.22;100.00;99680.72;7396494;19;20023;-59
2022/11/10 11:12:25;;;;;;;0.45;0.10;;;;;;;22.30;100.00;99683.59;7400533;19;20015;-59
2022/11/10 11:15:28;;;;;;;0.10;0.00;;;;;;;22.33;100.00;99688.13;7395078;19;20011;-59
2022/11/10 11:18:17;;;;;;;0.63;0.20;;;;;;;22.44;100.00;99680.06;7394934;19;20022;-60
2022/11/10 11:21:07;;;;;;;2.30;0.10;;;;;;;22.44;100.00;99682.91;7394077;19;20018;-62
2022/11/10 11:24:04;;;;;;;0.70;0.10;;;;;;;22.70;100.00;99681.13;7391628;19;20018;-59
2022/11/10 11:27:11;;;;;;;0.80;0.10;;;;;;;22.59;100.00;99677.31;7392166;19;20014;-59
2022/11/10 11:30:08;;;;;;;7.82;0.50;;;;;;;22.56;100.00;99667.06;7396820;19;20038;-59
2022/11/10 11:32:57;;;;;;;0.90;0.38;;;;;;;22.83;100.00;99666.75;7391950;19;20007;-60
2022/11/10 11:36:04;;;;;;;0.20;0.10;;;;;;;22.87;100.00;99667.91;7393295;19;20024;-59
2022/11/10 11:39:00;;;;;;;0.00;0.00;;;;;;;22.67;100.00;99665.22;7394086;19;20014;-59
2022/11/10 11:41:51;;;;;;;3.95;0.30;;;;;;;22.54;100.00;99664.00;7397583;19;20019;-59
2022/11/10 11:44:49;;;;;;;1.95;0.30;;;;;;;22.42;100.00;99687.63;7395353;19;20646;-59
2022/11/10 11:48:03;;;;;;;0.20;0.20;;;;;;;22.32;100.00;99698.75;7393028;19;20015;-60
2022/11/10 11:50:54;;;;;;;0.10;0.03;;;;;;;22.44;100.00;99705.59;7393764;19;19998;-59
2022/11/10 11:53:58;;;;;;;;;;;;;;;22.25;100.00;99702.31;7390864;19;20015;-59
2022/11/10 11:56:46;;;;;;;0.32;0.20;;;;;;;22.17;100.00;99703.59;7388224;19;19927;-58
2022/11/10 11:59:49;;;;;;;0.05;0.05;;;;;;;22.18;100.00;99700.19;7393112;19;20011;-59
2022/11/10 12:02:55;;;;;;;3.45;0.40;;;;;;;22.80;100.00;99696.28;7395132;19;20018;-59
2022/11/10 12:05:55;;;;;;;0.10;0.00;;;;;;;22.90;100.00;99694.41;7390369;19;20014;-58
2022/11/10 12:08:56;;;;;;;5.68;0.30;;;;;;;22.92;100.00;99686.84;7390305;19;20018;-57
2022/11/10 12:12:14;;;;;;;0.35;0.35;;;;;;;23.19;100.00;99692.94;7393326;19;20467;-57
2022/11/10 12:15:36;;;;;;;3.10;0.47;;;;;;;23.27;100.00;99699.38;7390666;19;20357;-57
2022/11/10 12:18:28;;;;;;;0.00;0.00;;;;;;;22.99;100.00;99714.50;7390772;19;20022;-57
2022/11/10 12:21:28;;;;;;;0.05;0.05;;;;;;;23.11;100.00;99723.41;7390671;19;20047;-57
2022/11/10 12:24:51;;;;;;;0.10;0.00;;;;;;;22.99;100.00;99725.09;7390983;19;20334;-57
2022/11/10 12:27:44;;;;;;;1.33;0.20;;;;;;;22.63;100.00;99733.72;7390547;19;20058;-57
2022/11/10 12:30:29;;;;;;;0.00;0.00;;;;;;;22.69;100.00;99733.53;7392138;19;20019;-57
2022/11/10 12:33:46;;;;;;;2.60;0.40;;;;;;;22.36;100.00;99744.56;7389588;19;20010;-57
2022/11/10 12:36:31;;;;;;;0.30;0.05;;;;;;;22.29;100.00;99750.94;7388686;19;20022;-57
2022/11/10 12:39:25;;;;;;;0.25;0.20;;;;;;;22.35;100.00;99754.38;7390296;19;20013;-57
2022/11/10 12:42:22;;;;;;;2.47;0.65;;;;;;;22.36;100.00;99750.22;7392205;19;20014;-57
2022/11/10 12:45:36;;;;;;;0.82;0.28;;;;;;;22.41;100.00;99755.00;7392289;19;20018;-57
2022/11/10 12:48:22;;;;;;;3.03;0.35;;;;;;;22.24;100.00;99748.28;7391630;19;20006;-58
2022/11/10 12:51:22;;;;;;;3.55;0.65;;;;;;;22.14;100.00;99738.75;7391051;19;20014;-58
2022/11/10 12:54:13;;;;;;;0.75;0.08;;;;;;;21.93;100.00;99741.66;7388380;19;20490;-57
2022/11/10 12:57:04;;;;;;;2.53;0.28;;;;;;;21.91;100.00;99744.28;7386748;19;20475;-57
2022/11/10 12:59:55;;;;;;;0.65;0.10;;;;;;;22.02;100.00;99738.31;7394130;19;20022;-57
2022/11/10 13:02:44;;;;;;;0.35;0.20;;;;;;;22.07;100.00;99736.63;7394177;19;20014;-57
2022/11/10 13:05:40;;;;;;;2.13;0.15;;;;;;;22.11;100.00;99746.28;7389869;19;20412;-57
2022/11/10 13:08:33;;;;;;;3.30;0.88;;;;;;;22.20;100.00;99748.63;7396655;19;20463;-57
2022/11/10 13:11:21;;;;;;;3.15;0.70;;;;;;;21.88;100.00;99740.47;7397950;19;20011;-57
2022/11/10 13:14:28;;;;;;;0.50;0.10;;;;;;;21.92;100.00;99740.13;7396309;19;20011;-59
2022/11/10 13:17:25;;;;;;;3.10;0.55;;;;;;;21.97;100.00;99733.53;7393277;19;20014;-58
2022/11/10 13:20:38;;;;;;;0.17;0.08;;;;;;;22.16;100.00;99725.53;7395764;19;20018;-57
2022/11/10 13:23:32;;;;;;;1.55;0.20;;;;;;;22.16;100.00;99719.84;7397124;19;20420;-57